sensor_id;sensor_type;location;lat;lon;timestamp;pressure;altitude;pressure_sealevel;temperature
10058;BMP180;5068;51.286;7.518;2024-02-15T00:01:04;99496.00;;;14.70
10058;BMP180;5068;51.286;7.518;2024-02-15T00:02:37;99507.00;;;14.70
10058;BMP180;5068;51.286;7.518;2024-02-15T00:04:23;99507.00;;;14.70
10058;BMP180;5068;51.286;7.518;2024-02-15T00:06:15;99497.00;;;14.70
10058;BMP180;5068;51.286;7.518;2024-02-15T00:07:47;99502.00;;;14.70
10058;BMP180;5068;51.286;7.518;2024-02-15T00:09:21;99499.00;;;14.70
10058;BMP180;5068;51.286;7.518;2024-02-15T00:10:54;99510.00;;;14.70
10058;BMP180;5068;51.286;7.518;2024-02-15T00:12:28;99505.00;;;14.70
10058;BMP180;5068;51.286;7.518;2024-02-15T00:14:01;99502.00;;;14.70
10058;BMP180;5068;51.286;7.518;2024-02-15T00:15:34;99501.00;;;14.70
10058;BMP180;5068;51.286;7.518;2024-02-15T00:17:07;99504.00;;;14.70
10058;BMP180;5068;51.286;7.518;2024-02-15T00:18:40;99496.00;;;14.70
10058;BMP180;5068;51.286;7.518;2024-02-15T00:20:13;99497.00;;;14.70
10058;BMP180;5068;51.286;7.518;2024-02-15T00:21:47;99509.00;;;14.70
10058;BMP180;5068;51.286;7.518;2024-02-15T00:23:19;99511.00;;;14.70
10058;BMP180;5068;51.286;7.518;2024-02-15T00:24:53;99499.00;;;14.70
10058;BMP180;5068;51.286;7.518;2024-02-15T00:26:25;99509.00;;;14.70
10058;BMP180;5068;51.286;7.518;2024-02-15T00:27:59;99507.00;;;14.70
10058;BMP180;5068;51.286;7.518;2024-02-15T00:29:34;99505.00;;;14.70
10058;BMP180;5068;51.286;7.518;2024-02-15T00:31:07;99507.00;;;14.70
10058;BMP180;5068;51.286;7.518;2024-02-15T00:32:40;99502.00;;;14.70
10058;BMP180;5068;51.286;7.518;2024-02-15T00:34:14;99505.00;;;14.70
10058;BMP180;5068;51.286;7.518;2024-02-15T00:35:47;99504.00;;;14.70
10058;BMP180;5068;51.286;7.518;2024-02-15T00:37:22;99505.00;;;14.70
10058;BMP180;5068;51.286;7.518;2024-02-15T00:38:55;99502.00;;;14.70
10058;BMP180;5068;51.286;7.518;2024-02-15T00:40:28;99507.00;;;14.70
10058;BMP180;5068;51.286;7.518;2024-02-15T00:42:00;99506.00;;;14.70
10058;BMP180;5068;51.286;7.518;2024-02-15T00:43:35;99502.00;;;14.70
10058;BMP180;5068;51.286;7.518;2024-02-15T00:45:09;99510.00;;;14.70
10058;BMP180;5068;51.286;7.518;2024-02-15T00:46:42;99508.00;;;14.70
10058;BMP180;5068;51.286;7.518;2024-02-15T00:48:15;99506.00;;;14.60
10058;BMP180;5068;51.286;7.518;2024-02-15T00:49:48;99511.00;;;14.60
10058;BMP180;5068;51.286;7.518;2024-02-15T00:51:22;99517.00;;;14.60
10058;BMP180;5068;51.286;7.518;2024-02-15T00:52:55;99522.00;;;14.60
10058;BMP180;5068;51.286;7.518;2024-02-15T00:54:28;99517.00;;;14.60
10058;BMP180;5068;51.286;7.518;2024-02-15T00:56:01;99518.00;;;14.70
10058;BMP180;5068;51.286;7.518;2024-02-15T00:57:33;99516.00;;;14.70
10058;BMP180;5068;51.286;7.518;2024-02-15T00:59:07;99523.00;;;14.70
10058;BMP180;5068;51.286;7.518;2024-02-15T01:00:40;99528.00;;;14.70
10058;BMP180;5068;51.286;7.518;2024-02-15T01:02:14;99519.00;;;14.70
10058;BMP180;5068;51.286;7.518;2024-02-15T01:03:46;99520.00;;;14.70
10058;BMP180;5068;51.286;7.518;2024-02-15T01:05:19;99526.00;;;14.70
10058;BMP180;5068;51.286;7.518;2024-02-15T01:06:52;99521.00;;;14.70
10058;BMP180;5068;51.286;7.518;2024-02-15T01:08:28;99518.00;;;14.70
10058;BMP180;5068;51.286;7.518;2024-02-15T01:10:00;99518.00;;;14.70
10058;BMP180;5068;51.286;7.518;2024-02-15T01:11:36;99519.00;;;14.70
10058;BMP180;5068;51.286;7.518;2024-02-15T01:13:08;99520.00;;;14.70
10058;BMP180;5068;51.286;7.518;2024-02-15T01:14:42;99525.00;;;14.70
10058;BMP180;5068;51.286;7.518;2024-02-15T01:16:17;99524.00;;;14.70
10058;BMP180;5068;51.286;7.518;2024-02-15T01:17:50;99517.00;;;14.70
10058;BMP180;5068;51.286;7.518;2024-02-15T01:19:24;99531.00;;;14.70
10058;BMP180;5068;51.286;7.518;2024-02-15T01:20:57;99525.00;;;14.70
10058;BMP180;5068;51.286;7.518;2024-02-15T01:22:30;99527.00;;;14.70
10058;BMP180;5068;51.286;7.518;2024-02-15T01:24:04;99525.00;;;14.70
10058;BMP180;5068;51.286;7.518;2024-02-15T01:25:39;99522.00;;;14.70
10058;BMP180;5068;51.286;7.518;2024-02-15T01:27:12;99525.00;;;14.80
10058;BMP180;5068;51.286;7.518;2024-02-15T01:28:45;99533.00;;;14.80
10058;BMP180;5068;51.286;7.518;2024-02-15T01:30:18;99520.00;;;14.80
10058;BMP180;5068;51.286;7.518;2024-02-15T01:31:53;99520.00;;;14.80
10058;BMP180;5068;51.286;7.518;2024-02-15T01:33:25;99522.00;;;14.80
10058;BMP180;5068;51.286;7.518;2024-02-15T01:34:59;99527.00;;;14.80
10058;BMP180;5068;51.286;7.518;2024-02-15T01:36:32;99524.00;;;14.80
10058;BMP180;5068;51.286;7.518;2024-02-15T01:38:05;99522.00;;;14.80
10058;BMP180;5068;51.286;7.518;2024-02-15T01:39:37;99520.00;;;14.80
10058;BMP180;5068;51.286;7.518;2024-02-15T01:41:11;99512.00;;;14.80
10058;BMP180;5068;51.286;7.518;2024-02-15T01:42:45;99513.00;;;14.80
10058;BMP180;5068;51.286;7.518;2024-02-15T01:44:19;99510.00;;;14.80
10058;BMP180;5068;51.286;7.518;2024-02-15T01:45:52;99513.00;;;14.80
10058;BMP180;5068;51.286;7.518;2024-02-15T01:47:27;99511.00;;;14.80
10058;BMP180;5068;51.286;7.518;2024-02-15T01:49:00;99509.00;;;14.80
10058;BMP180;5068;51.286;7.518;2024-02-15T01:50:34;99517.00;;;14.80
10058;BMP180;5068;51.286;7.518;2024-02-15T01:52:08;99517.00;;;14.80
10058;BMP180;5068;51.286;7.518;2024-02-15T01:53:42;99508.00;;;14.80
10058;BMP180;5068;51.286;7.518;2024-02-15T01:55:17;99507.00;;;14.80
10058;BMP180;5068;51.286;7.518;2024-02-15T01:56:52;99518.00;;;14.80
10058;BMP180;5068;51.286;7.518;2024-02-15T01:58:26;99511.00;;;14.90
10058;BMP180;5068;51.286;7.518;2024-02-15T02:00:02;99509.00;;;14.90
10058;BMP180;5068;51.286;7.518;2024-02-15T02:01:50;99512.00;;;14.90
10058;BMP180;5068;51.286;7.518;2024-02-15T02:03:25;99507.00;;;14.90
10058;BMP180;5068;51.286;7.518;2024-02-15T02:04:57;99507.00;;;14.90
10058;BMP180;5068;51.286;7.518;2024-02-15T02:06:31;99506.00;;;14.90
10058;BMP180;5068;51.286;7.518;2024-02-15T02:08:04;99506.00;;;14.90
10058;BMP180;5068;51.286;7.518;2024-02-15T02:09:41;99501.00;;;14.90
10058;BMP180;5068;51.286;7.518;2024-02-15T02:11:14;99500.00;;;14.90
10058;BMP180;5068;51.286;7.518;2024-02-15T02:12:47;99507.00;;;14.90
10058;BMP180;5068;51.286;7.518;2024-02-15T02:14:19;99508.00;;;14.90
10058;BMP180;5068;51.286;7.518;2024-02-15T02:15:53;99508.00;;;14.80
10058;BMP180;5068;51.286;7.518;2024-02-15T02:17:26;99505.00;;;14.80
10058;BMP180;5068;51.286;7.518;2024-02-15T02:19:01;99501.00;;;14.80
10058;BMP180;5068;51.286;7.518;2024-02-15T02:20:34;99508.00;;;14.80
10058;BMP180;5068;51.286;7.518;2024-02-15T02:22:09;99502.00;;;14.80
10058;BMP180;5068;51.286;7.518;2024-02-15T02:23:42;99496.00;;;14.80
10058;BMP180;5068;51.286;7.518;2024-02-15T02:25:20;99499.00;;;14.80
10058;BMP180;5068;51.286;7.518;2024-02-15T02:27:02;99498.00;;;14.70
10058;BMP180;5068;51.286;7.518;2024-02-15T02:28:39;99500.00;;;14.70
10058;BMP180;5068;51.286;7.518;2024-02-15T02:30:15;99496.00;;;14.70
10058;BMP180;5068;51.286;7.518;2024-02-15T02:31:49;99505.00;;;14.70
10058;BMP180;5068;51.286;7.518;2024-02-15T02:33:22;99486.00;;;14.70
10058;BMP180;5068;51.286;7.518;2024-02-15T02:34:57;99499.00;;;14.70
10058;BMP180;5068;51.286;7.518;2024-02-15T02:36:30;99485.00;;;14.70
10058;BMP180;5068;51.286;7.518;2024-02-15T02:38:03;99480.00;;;14.70
10058;BMP180;5068;51.286;7.518;2024-02-15T02:39:36;99483.00;;;14.70
10058;BMP180;5068;51.286;7.518;2024-02-15T02:41:10;99481.00;;;14.70
10058;BMP180;5068;51.286;7.518;2024-02-15T02:42:51;99472.00;;;14.70
10058;BMP180;5068;51.286;7.518;2024-02-15T02:44:23;99489.00;;;14.70
10058;BMP180;5068;51.286;7.518;2024-02-15T02:45:57;99479.00;;;14.70
10058;BMP180;5068;51.286;7.518;2024-02-15T02:47:30;99480.00;;;14.70
10058;BMP180;5068;51.286;7.518;2024-02-15T02:49:03;99471.00;;;14.70
10058;BMP180;5068;51.286;7.518;2024-02-15T02:50:37;99471.00;;;14.70
10058;BMP180;5068;51.286;7.518;2024-02-15T02:52:10;99472.00;;;14.70
10058;BMP180;5068;51.286;7.518;2024-02-15T02:53:43;99475.00;;;14.60
10058;BMP180;5068;51.286;7.518;2024-02-15T02:55:16;99473.00;;;14.60
10058;BMP180;5068;51.286;7.518;2024-02-15T02:56:51;99471.00;;;14.60
10058;BMP180;5068;51.286;7.518;2024-02-15T02:58:23;99473.00;;;14.60
10058;BMP180;5068;51.286;7.518;2024-02-15T02:59:57;99469.00;;;14.60
10058;BMP180;5068;51.286;7.518;2024-02-15T03:01:29;99469.00;;;14.60
10058;BMP180;5068;51.286;7.518;2024-02-15T03:03:03;99477.00;;;14.50
10058;BMP180;5068;51.286;7.518;2024-02-15T03:04:37;99470.00;;;14.60
10058;BMP180;5068;51.286;7.518;2024-02-15T03:06:12;99473.00;;;14.50
10058;BMP180;5068;51.286;7.518;2024-02-15T03:07:44;99471.00;;;14.50
10058;BMP180;5068;51.286;7.518;2024-02-15T03:09:18;99469.00;;;14.50
10058;BMP180;5068;51.286;7.518;2024-02-15T03:10:52;99463.00;;;14.50
10058;BMP180;5068;51.286;7.518;2024-02-15T03:12:27;99467.00;;;14.50
10058;BMP180;5068;51.286;7.518;2024-02-15T03:13:59;99467.00;;;14.50
10058;BMP180;5068;51.286;7.518;2024-02-15T03:15:32;99463.00;;;14.40
10058;BMP180;5068;51.286;7.518;2024-02-15T03:17:06;99465.00;;;14.40
10058;BMP180;5068;51.286;7.518;2024-02-15T03:18:40;99459.00;;;14.40
10058;BMP180;5068;51.286;7.518;2024-02-15T03:20:14;99463.00;;;14.50
10058;BMP180;5068;51.286;7.518;2024-02-15T03:21:53;99466.00;;;14.50
10058;BMP180;5068;51.286;7.518;2024-02-15T03:23:27;99473.00;;;14.50
10058;BMP180;5068;51.286;7.518;2024-02-15T03:25:01;99465.00;;;14.50
10058;BMP180;5068;51.286;7.518;2024-02-15T03:26:34;99462.00;;;14.50
10058;BMP180;5068;51.286;7.518;2024-02-15T03:28:10;99467.00;;;14.50
10058;BMP180;5068;51.286;7.518;2024-02-15T03:29:44;99459.00;;;14.40
10058;BMP180;5068;51.286;7.518;2024-02-15T03:31:16;99455.00;;;14.40
10058;BMP180;5068;51.286;7.518;2024-02-15T03:32:51;99462.00;;;14.40
10058;BMP180;5068;51.286;7.518;2024-02-15T03:34:24;99465.00;;;14.40
10058;BMP180;5068;51.286;7.518;2024-02-15T03:35:58;99457.00;;;14.40
10058;BMP180;5068;51.286;7.518;2024-02-15T03:37:32;99451.00;;;14.40
10058;BMP180;5068;51.286;7.518;2024-02-15T03:39:09;99441.00;;;14.40
10058;BMP180;5068;51.286;7.518;2024-02-15T03:40:41;99447.00;;;14.40
10058;BMP180;5068;51.286;7.518;2024-02-15T03:42:14;99453.00;;;14.40
10058;BMP180;5068;51.286;7.518;2024-02-15T03:43:50;99443.00;;;14.40
10058;BMP180;5068;51.286;7.518;2024-02-15T03:45:22;99453.00;;;14.40
10058;BMP180;5068;51.286;7.518;2024-02-15T03:46:57;99458.00;;;14.40
10058;BMP180;5068;51.286;7.518;2024-02-15T03:48:31;99459.00;;;14.40
10058;BMP180;5068;51.286;7.518;2024-02-15T03:50:06;99454.00;;;14.40
10058;BMP180;5068;51.286;7.518;2024-02-15T03:51:42;99457.00;;;14.40
10058;BMP180;5068;51.286;7.518;2024-02-15T03:53:17;99454.00;;;14.40
10058;BMP180;5068;51.286;7.518;2024-02-15T03:54:50;99454.00;;;14.40
10058;BMP180;5068;51.286;7.518;2024-02-15T03:56:22;99461.00;;;14.40
10058;BMP180;5068;51.286;7.518;2024-02-15T03:57:55;99453.00;;;14.40
10058;BMP180;5068;51.286;7.518;2024-02-15T03:59:31;99449.00;;;14.40
10058;BMP180;5068;51.286;7.518;2024-02-15T04:01:07;99447.00;;;14.40
10058;BMP180;5068;51.286;7.518;2024-02-15T04:02:42;99446.00;;;14.40
10058;BMP180;5068;51.286;7.518;2024-02-15T04:04:15;99456.00;;;14.50
10058;BMP180;5068;51.286;7.518;2024-02-15T04:05:48;99453.00;;;14.50
10058;BMP180;5068;51.286;7.518;2024-02-15T04:07:22;99459.00;;;14.50
10058;BMP180;5068;51.286;7.518;2024-02-15T04:08:56;99456.00;;;14.50
10058;BMP180;5068;51.286;7.518;2024-02-15T04:10:29;99458.00;;;14.50
10058;BMP180;5068;51.286;7.518;2024-02-15T04:12:07;99455.00;;;14.50
10058;BMP180;5068;51.286;7.518;2024-02-15T04:13:40;99460.00;;;14.50
10058;BMP180;5068;51.286;7.518;2024-02-15T04:15:16;99458.00;;;14.50
10058;BMP180;5068;51.286;7.518;2024-02-15T04:16:50;99457.00;;;14.50
10058;BMP180;5068;51.286;7.518;2024-02-15T04:18:23;99459.00;;;14.40
10058;BMP180;5068;51.286;7.518;2024-02-15T04:19:56;99462.00;;;14.40
10058;BMP180;5068;51.286;7.518;2024-02-15T04:21:28;99457.00;;;14.40
10058;BMP180;5068;51.286;7.518;2024-02-15T04:23:03;99468.00;;;14.40
10058;BMP180;5068;51.286;7.518;2024-02-15T04:24:36;99468.00;;;14.40
10058;BMP180;5068;51.286;7.518;2024-02-15T04:26:11;99459.00;;;14.40
10058;BMP180;5068;51.286;7.518;2024-02-15T04:27:46;99462.00;;;14.40
10058;BMP180;5068;51.286;7.518;2024-02-15T04:29:19;99469.00;;;14.40
10058;BMP180;5068;51.286;7.518;2024-02-15T04:30:54;99467.00;;;14.30
10058;BMP180;5068;51.286;7.518;2024-02-15T04:32:27;99461.00;;;14.30
10058;BMP180;5068;51.286;7.518;2024-02-15T04:34:01;99461.00;;;14.30
10058;BMP180;5068;51.286;7.518;2024-02-15T04:35:33;99450.00;;;14.30
10058;BMP180;5068;51.286;7.518;2024-02-15T04:37:07;99461.00;;;14.30
10058;BMP180;5068;51.286;7.518;2024-02-15T04:38:40;99456.00;;;14.30
10058;BMP180;5068;51.286;7.518;2024-02-15T04:40:13;99455.00;;;14.30
10058;BMP180;5068;51.286;7.518;2024-02-15T04:41:46;99443.00;;;14.30
10058;BMP180;5068;51.286;7.518;2024-02-15T04:43:18;99451.00;;;14.20
10058;BMP180;5068;51.286;7.518;2024-02-15T04:44:52;99450.00;;;14.20
10058;BMP180;5068;51.286;7.518;2024-02-15T04:46:27;99444.00;;;14.20
10058;BMP180;5068;51.286;7.518;2024-02-15T04:48:01;99441.00;;;14.20
10058;BMP180;5068;51.286;7.518;2024-02-15T04:49:34;99440.00;;;14.10
10058;BMP180;5068;51.286;7.518;2024-02-15T04:51:09;99440.00;;;14.10
10058;BMP180;5068;51.286;7.518;2024-02-15T04:52:42;99443.00;;;14.10
10058;BMP180;5068;51.286;7.518;2024-02-15T04:54:17;99436.00;;;14.10
10058;BMP180;5068;51.286;7.518;2024-02-15T04:55:50;99439.00;;;14.10
10058;BMP180;5068;51.286;7.518;2024-02-15T04:57:23;99434.00;;;14.10
10058;BMP180;5068;51.286;7.518;2024-02-15T04:58:56;99433.00;;;14.10
10058;BMP180;5068;51.286;7.518;2024-02-15T05:00:29;99437.00;;;14.10
10058;BMP180;5068;51.286;7.518;2024-02-15T05:02:04;99425.00;;;14.10
10058;BMP180;5068;51.286;7.518;2024-02-15T05:03:36;99441.00;;;14.10
10058;BMP180;5068;51.286;7.518;2024-02-15T05:05:09;99432.00;;;14.10
10058;BMP180;5068;51.286;7.518;2024-02-15T05:06:44;99436.00;;;14.10
10058;BMP180;5068;51.286;7.518;2024-02-15T05:08:17;99433.00;;;14.10
10058;BMP180;5068;51.286;7.518;2024-02-15T05:09:50;99432.00;;;14.10
10058;BMP180;5068;51.286;7.518;2024-02-15T05:11:24;99439.00;;;14.10
10058;BMP180;5068;51.286;7.518;2024-02-15T05:12:58;99434.00;;;14.10
10058;BMP180;5068;51.286;7.518;2024-02-15T05:14:33;99436.00;;;14.00
10058;BMP180;5068;51.286;7.518;2024-02-15T05:16:11;99440.00;;;14.00
10058;BMP180;5068;51.286;7.518;2024-02-15T05:17:46;99445.00;;;14.00
10058;BMP180;5068;51.286;7.518;2024-02-15T05:19:20;99443.00;;;14.00
10058;BMP180;5068;51.286;7.518;2024-02-15T05:20:53;99442.00;;;14.00
10058;BMP180;5068;51.286;7.518;2024-02-15T05:22:25;99449.00;;;14.00
10058;BMP180;5068;51.286;7.518;2024-02-15T05:24:00;99450.00;;;14.00
10058;BMP180;5068;51.286;7.518;2024-02-15T05:25:32;99446.00;;;14.00
10058;BMP180;5068;51.286;7.518;2024-02-15T05:27:07;99452.00;;;14.00
10058;BMP180;5068;51.286;7.518;2024-02-15T05:28:39;99459.00;;;14.00
10058;BMP180;5068;51.286;7.518;2024-02-15T05:30:14;99448.00;;;13.90
10058;BMP180;5068;51.286;7.518;2024-02-15T05:31:47;99449.00;;;13.90
10058;BMP180;5068;51.286;7.518;2024-02-15T05:33:23;99451.00;;;13.90
10058;BMP180;5068;51.286;7.518;2024-02-15T05:34:57;99445.00;;;13.90
10058;BMP180;5068;51.286;7.518;2024-02-15T05:36:30;99437.00;;;13.90
10058;BMP180;5068;51.286;7.518;2024-02-15T05:38:03;99435.00;;;14.00
10058;BMP180;5068;51.286;7.518;2024-02-15T05:39:38;99441.00;;;14.00
10058;BMP180;5068;51.286;7.518;2024-02-15T05:41:11;99432.00;;;14.00
10058;BMP180;5068;51.286;7.518;2024-02-15T05:42:44;99436.00;;;13.90
10058;BMP180;5068;51.286;7.518;2024-02-15T05:44:17;99433.00;;;13.90
10058;BMP180;5068;51.286;7.518;2024-02-15T05:45:52;99438.00;;;14.00
10058;BMP180;5068;51.286;7.518;2024-02-15T05:47:25;99442.00;;;14.00
10058;BMP180;5068;51.286;7.518;2024-02-15T05:48:59;99430.00;;;14.00
10058;BMP180;5068;51.286;7.518;2024-02-15T05:50:34;99442.00;;;14.00
10058;BMP180;5068;51.286;7.518;2024-02-15T05:52:08;99433.00;;;14.00
10058;BMP180;5068;51.286;7.518;2024-02-15T05:53:40;99434.00;;;14.00
10058;BMP180;5068;51.286;7.518;2024-02-15T05:55:14;99433.00;;;14.00
10058;BMP180;5068;51.286;7.518;2024-02-15T05:56:48;99428.00;;;13.90
10058;BMP180;5068;51.286;7.518;2024-02-15T05:58:24;99427.00;;;13.90
10058;BMP180;5068;51.286;7.518;2024-02-15T05:59:56;99425.00;;;13.90
10058;BMP180;5068;51.286;7.518;2024-02-15T06:01:35;99420.00;;;13.90
10058;BMP180;5068;51.286;7.518;2024-02-15T06:03:08;99421.00;;;13.90
10058;BMP180;5068;51.286;7.518;2024-02-15T06:04:42;99419.00;;;13.90
10058;BMP180;5068;51.286;7.518;2024-02-15T06:06:16;99416.00;;;13.90
10058;BMP180;5068;51.286;7.518;2024-02-15T06:07:48;99425.00;;;13.90
10058;BMP180;5068;51.286;7.518;2024-02-15T06:09:22;99418.00;;;13.90
10058;BMP180;5068;51.286;7.518;2024-02-15T06:10:58;99413.00;;;13.90
10058;BMP180;5068;51.286;7.518;2024-02-15T06:12:31;99414.00;;;13.90
10058;BMP180;5068;51.286;7.518;2024-02-15T06:14:04;99411.00;;;13.90
10058;BMP180;5068;51.286;7.518;2024-02-15T06:15:38;99407.00;;;13.90
10058;BMP180;5068;51.286;7.518;2024-02-15T06:17:10;99417.00;;;13.90
10058;BMP180;5068;51.286;7.518;2024-02-15T06:18:44;99410.00;;;13.90
10058;BMP180;5068;51.286;7.518;2024-02-15T06:20:17;99414.00;;;13.90
10058;BMP180;5068;51.286;7.518;2024-02-15T06:21:51;99408.00;;;13.90
10058;BMP180;5068;51.286;7.518;2024-02-15T06:23:24;99419.00;;;13.90
10058;BMP180;5068;51.286;7.518;2024-02-15T06:24:57;99415.00;;;13.90
10058;BMP180;5068;51.286;7.518;2024-02-15T06:26:30;99408.00;;;13.90
10058;BMP180;5068;51.286;7.518;2024-02-15T06:28:05;99410.00;;;13.90
10058;BMP180;5068;51.286;7.518;2024-02-15T06:29:45;99414.00;;;13.90
10058;BMP180;5068;51.286;7.518;2024-02-15T06:31:37;99414.00;;;13.90
10058;BMP180;5068;51.286;7.518;2024-02-15T06:33:27;99412.00;;;13.90
10058;BMP180;5068;51.286;7.518;2024-02-15T06:35:20;99425.00;;;13.90
10058;BMP180;5068;51.286;7.518;2024-02-15T06:37:37;99414.00;;;13.80
10058;BMP180;5068;51.286;7.518;2024-02-15T06:39:28;99422.00;;;13.80
10058;BMP180;5068;51.286;7.518;2024-02-15T06:41:17;99428.00;;;13.70
10058;BMP180;5068;51.286;7.518;2024-02-15T06:42:53;99425.00;;;13.70
10058;BMP180;5068;51.286;7.518;2024-02-15T06:44:26;99434.00;;;13.70
10058;BMP180;5068;51.286;7.518;2024-02-15T06:45:58;99424.00;;;13.70
10058;BMP180;5068;51.286;7.518;2024-02-15T06:47:32;99431.00;;;13.70
10058;BMP180;5068;51.286;7.518;2024-02-15T06:49:04;99427.00;;;13.70
10058;BMP180;5068;51.286;7.518;2024-02-15T06:50:39;99432.00;;;13.70
10058;BMP180;5068;51.286;7.518;2024-02-15T06:52:12;99436.00;;;13.70
10058;BMP180;5068;51.286;7.518;2024-02-15T06:53:45;99438.00;;;13.70
10058;BMP180;5068;51.286;7.518;2024-02-15T06:55:18;99429.00;;;13.70
10058;BMP180;5068;51.286;7.518;2024-02-15T06:56:54;99426.00;;;13.70
10058;BMP180;5068;51.286;7.518;2024-02-15T06:58:26;99429.00;;;13.70
10058;BMP180;5068;51.286;7.518;2024-02-15T07:00:00;99426.00;;;13.70
10058;BMP180;5068;51.286;7.518;2024-02-15T07:01:33;99424.00;;;13.80
10058;BMP180;5068;51.286;7.518;2024-02-15T07:03:06;99431.00;;;13.80
10058;BMP180;5068;51.286;7.518;2024-02-15T07:04:39;99424.00;;;13.80
10058;BMP180;5068;51.286;7.518;2024-02-15T07:06:14;99423.00;;;13.80
10058;BMP180;5068;51.286;7.518;2024-02-15T07:07:46;99429.00;;;13.80
10058;BMP180;5068;51.286;7.518;2024-02-15T07:09:20;99421.00;;;13.80
10058;BMP180;5068;51.286;7.518;2024-02-15T07:10:53;99427.00;;;13.80
10058;BMP180;5068;51.286;7.518;2024-02-15T07:12:26;99422.00;;;13.80
10058;BMP180;5068;51.286;7.518;2024-02-15T07:14:00;99430.00;;;13.80
10058;BMP180;5068;51.286;7.518;2024-02-15T07:15:32;99436.00;;;13.80
10058;BMP180;5068;51.286;7.518;2024-02-15T07:17:09;99424.00;;;13.80
10058;BMP180;5068;51.286;7.518;2024-02-15T07:18:43;99436.00;;;13.90
10058;BMP180;5068;51.286;7.518;2024-02-15T07:20:15;99430.00;;;13.90
10058;BMP180;5068;51.286;7.518;2024-02-15T07:21:51;99431.00;;;13.90
10058;BMP180;5068;51.286;7.518;2024-02-15T07:23:23;99429.00;;;13.90
10058;BMP180;5068;51.286;7.518;2024-02-15T07:24:57;99425.00;;;13.90
10058;BMP180;5068;51.286;7.518;2024-02-15T07:26:30;99426.00;;;13.90
10058;BMP180;5068;51.286;7.518;2024-02-15T07:28:04;99419.00;;;13.90
10058;BMP180;5068;51.286;7.518;2024-02-15T07:29:36;99433.00;;;13.90
10058;BMP180;5068;51.286;7.518;2024-02-15T07:31:10;99429.00;;;13.90
10058;BMP180;5068;51.286;7.518;2024-02-15T07:32:42;99430.00;;;13.90
10058;BMP180;5068;51.286;7.518;2024-02-15T07:34:15;99439.00;;;14.00
10058;BMP180;5068;51.286;7.518;2024-02-15T07:35:48;99429.00;;;14.00
10058;BMP180;5068;51.286;7.518;2024-02-15T07:37:24;99431.00;;;14.00
10058;BMP180;5068;51.286;7.518;2024-02-15T07:38:58;99436.00;;;14.00
10058;BMP180;5068;51.286;7.518;2024-02-15T07:40:33;99436.00;;;14.00
10058;BMP180;5068;51.286;7.518;2024-02-15T07:42:08;99439.00;;;14.00
10058;BMP180;5068;51.286;7.518;2024-02-15T07:43:40;99444.00;;;14.00
10058;BMP180;5068;51.286;7.518;2024-02-15T07:45:14;99440.00;;;14.00
10058;BMP180;5068;51.286;7.518;2024-02-15T07:46:48;99442.00;;;14.00
10058;BMP180;5068;51.286;7.518;2024-02-15T07:48:20;99445.00;;;14.10
10058;BMP180;5068;51.286;7.518;2024-02-15T07:49:54;99448.00;;;14.10
10058;BMP180;5068;51.286;7.518;2024-02-15T07:51:26;99451.00;;;14.10
10058;BMP180;5068;51.286;7.518;2024-02-15T07:53:01;99449.00;;;14.10
10058;BMP180;5068;51.286;7.518;2024-02-15T07:54:33;99446.00;;;14.10
10058;BMP180;5068;51.286;7.518;2024-02-15T07:56:07;99439.00;;;14.10
10058;BMP180;5068;51.286;7.518;2024-02-15T07:57:39;99441.00;;;14.10
10058;BMP180;5068;51.286;7.518;2024-02-15T07:59:12;99446.00;;;14.10
10058;BMP180;5068;51.286;7.518;2024-02-15T08:00:45;99444.00;;;14.10
10058;BMP180;5068;51.286;7.518;2024-02-15T08:02:18;99444.00;;;14.10
10058;BMP180;5068;51.286;7.518;2024-02-15T08:03:54;99442.00;;;14.10
10058;BMP180;5068;51.286;7.518;2024-02-15T08:05:27;99434.00;;;14.10
10058;BMP180;5068;51.286;7.518;2024-02-15T08:06:59;99441.00;;;14.10
10058;BMP180;5068;51.286;7.518;2024-02-15T08:08:37;99434.00;;;14.20
10058;BMP180;5068;51.286;7.518;2024-02-15T08:10:09;99435.00;;;14.20
10058;BMP180;5068;51.286;7.518;2024-02-15T08:11:44;99432.00;;;14.20
10058;BMP180;5068;51.286;7.518;2024-02-15T08:13:17;99430.00;;;14.20
10058;BMP180;5068;51.286;7.518;2024-02-15T08:14:54;99425.00;;;14.20
10058;BMP180;5068;51.286;7.518;2024-02-15T08:16:26;99423.00;;;14.20
10058;BMP180;5068;51.286;7.518;2024-02-15T08:18:00;99412.00;;;14.20
10058;BMP180;5068;51.286;7.518;2024-02-15T08:19:37;99410.00;;;14.20
10058;BMP180;5068;51.286;7.518;2024-02-15T08:21:17;99404.00;;;14.20
10058;BMP180;5068;51.286;7.518;2024-02-15T08:22:51;99403.00;;;14.30
10058;BMP180;5068;51.286;7.518;2024-02-15T08:24:24;99402.00;;;14.30
10058;BMP180;5068;51.286;7.518;2024-02-15T08:25:58;99402.00;;;14.30
10058;BMP180;5068;51.286;7.518;2024-02-15T08:27:30;99395.00;;;14.30
10058;BMP180;5068;51.286;7.518;2024-02-15T08:29:05;99391.00;;;14.30
10058;BMP180;5068;51.286;7.518;2024-02-15T08:30:38;99398.00;;;14.30
10058;BMP180;5068;51.286;7.518;2024-02-15T08:32:11;99400.00;;;14.30
10058;BMP180;5068;51.286;7.518;2024-02-15T08:33:43;99397.00;;;14.30
10058;BMP180;5068;51.286;7.518;2024-02-15T08:35:18;99400.00;;;14.30
10058;BMP180;5068;51.286;7.518;2024-02-15T08:36:51;99404.00;;;14.30
10058;BMP180;5068;51.286;7.518;2024-02-15T08:38:23;99404.00;;;14.40
10058;BMP180;5068;51.286;7.518;2024-02-15T08:39:58;99404.00;;;14.40
10058;BMP180;5068;51.286;7.518;2024-02-15T08:41:31;99410.00;;;14.40
10058;BMP180;5068;51.286;7.518;2024-02-15T08:43:05;99403.00;;;14.40
10058;BMP180;5068;51.286;7.518;2024-02-15T08:44:38;99398.00;;;14.40
10058;BMP180;5068;51.286;7.518;2024-02-15T08:46:13;99403.00;;;14.40
10058;BMP180;5068;51.286;7.518;2024-02-15T08:47:45;99402.00;;;14.40
10058;BMP180;5068;51.286;7.518;2024-02-15T08:49:18;99402.00;;;14.40
10058;BMP180;5068;51.286;7.518;2024-02-15T08:50:53;99407.00;;;14.40
10058;BMP180;5068;51.286;7.518;2024-02-15T08:52:25;99396.00;;;14.40
10058;BMP180;5068;51.286;7.518;2024-02-15T08:53:58;99398.00;;;14.40
10058;BMP180;5068;51.286;7.518;2024-02-15T08:55:33;99382.00;;;14.50
10058;BMP180;5068;51.286;7.518;2024-02-15T08:57:08;99392.00;;;14.50
10058;BMP180;5068;51.286;7.518;2024-02-15T08:58:40;99388.00;;;14.50
10058;BMP180;5068;51.286;7.518;2024-02-15T09:00:15;99388.00;;;14.50
10058;BMP180;5068;51.286;7.518;2024-02-15T09:01:50;99382.00;;;14.50
10058;BMP180;5068;51.286;7.518;2024-02-15T09:03:23;99387.00;;;14.50
10058;BMP180;5068;51.286;7.518;2024-02-15T09:04:57;99375.00;;;14.50
10058;BMP180;5068;51.286;7.518;2024-02-15T09:06:31;99382.00;;;14.50
10058;BMP180;5068;51.286;7.518;2024-02-15T09:08:05;99386.00;;;14.50
10058;BMP180;5068;51.286;7.518;2024-02-15T09:09:37;99386.00;;;14.50
10058;BMP180;5068;51.286;7.518;2024-02-15T09:11:11;99389.00;;;14.60